createdAt,value
2023-04-06T00:00:51.717Z,4.00
2023-04-06T00:03:19.555Z,3.57
2023-04-06T00:05:49.086Z,3.60
2023-04-06T00:08:16.283Z,3.40
2023-04-06T00:10:43.415Z,3.50
2023-04-06T00:13:10.956Z,3.43
2023-04-06T00:15:38.002Z,3.70
2023-04-06T00:18:05.264Z,3.57
2023-04-06T00:20:32.341Z,3.73
2023-04-06T00:22:59.381Z,3.53
2023-04-06T00:25:26.743Z,3.60
2023-04-06T00:27:53.980Z,3.40
2023-04-06T00:30:21.233Z,3.17
2023-04-06T00:32:48.267Z,3.43
2023-04-06T00:35:16.085Z,3.13
2023-04-06T00:37:43.200Z,3.47
2023-04-06T00:40:11.328Z,3.53
2023-04-06T00:42:38.486Z,3.30
2023-04-06T00:45:06.227Z,3.40
2023-04-06T00:47:34.234Z,3.57
2023-04-06T00:50:01.376Z,3.53
2023-04-06T00:52:28.797Z,3.07
2023-04-06T00:54:56.342Z,3.80
2023-04-06T00:57:23.845Z,3.43
2023-04-06T00:59:56.077Z,3.67
2023-04-06T01:02:26.209Z,3.63
2023-04-06T01:04:55.585Z,3.30
2023-04-06T01:07:31.431Z,3.50
2023-04-06T01:10:12.236Z,3.80
2023-04-06T01:12:40.078Z,3.67
2023-04-06T01:15:16.247Z,3.90
2023-04-06T01:17:48.442Z,3.57
2023-04-06T01:20:17.528Z,4.00
2023-04-06T01:22:44.695Z,3.67
2023-04-06T01:25:13.359Z,3.77
2023-04-06T01:27:48.763Z,3.63
2023-04-06T01:30:22.110Z,3.70
2023-04-06T01:32:55.011Z,3.37
2023-04-06T01:35:34.998Z,3.37
2023-04-06T01:38:15.665Z,3.43
2023-04-06T01:40:42.869Z,3.50
2023-04-06T01:43:11.163Z,3.40
2023-04-06T01:45:50.817Z,3.47
2023-04-06T01:48:21.124Z,3.67
2023-04-06T01:50:49.248Z,3.50
2023-04-06T01:53:22.526Z,3.67
2023-04-06T01:55:50.593Z,3.87
2023-04-06T01:58:23.600Z,3.30
2023-04-06T02:00:50.953Z,3.57
2023-04-06T02:03:18.580Z,3.60
2023-04-06T02:05:47.159Z,3.50
2023-04-06T02:08:32.834Z,3.47
2023-04-06T02:11:00.111Z,3.80
2023-04-06T02:13:34.361Z,3.47
2023-04-06T02:16:03.580Z,3.50
2023-04-06T02:18:34.303Z,4.00
2023-04-06T02:21:01.672Z,4.40
2023-04-06T02:23:28.804Z,3.40
2023-04-06T02:25:57.805Z,4.00
2023-04-06T02:28:24.892Z,15.63
2023-04-06T02:30:51.919Z,17.30
2023-04-06T02:33:20.761Z,10.00
2023-04-06T02:35:48.688Z,5.67
2023-04-06T02:38:15.826Z,4.13
2023-04-06T02:40:42.821Z,3.83
2023-04-06T02:43:20.739Z,5.43
2023-04-06T02:45:49.468Z,3.73
2023-04-06T02:48:17.030Z,4.07
2023-04-06T02:50:44.263Z,23.57
2023-04-06T02:53:11.260Z,43.57
2023-04-06T02:55:40.030Z,27.27
2023-04-06T02:58:07.692Z,23.30
2023-04-06T03:00:47.756Z,40.17
2023-04-06T03:03:15.003Z,53.97
2023-04-06T03:05:43.822Z,20.07
2023-04-06T03:08:11.622Z,8.20
2023-04-06T03:10:42.965Z,9.87
2023-04-06T03:13:10.017Z,7.07
2023-04-06T03:15:44.726Z,6.27
2023-04-06T03:18:16.099Z,6.10
2023-04-06T03:20:48.909Z,7.23
2023-04-06T03:23:17.677Z,6.63
2023-04-06T03:25:46.389Z,5.90
2023-04-06T03:28:17.341Z,6.17
2023-04-06T03:30:57.292Z,7.63
2023-04-06T03:33:46.958Z,6.97
2023-04-06T03:36:22.795Z,6.93
2023-04-06T03:38:49.972Z,6.67
2023-04-06T03:41:17.440Z,7.33
2023-04-06T03:43:52.098Z,7.57
2023-04-06T03:46:19.274Z,8.57
2023-04-06T03:48:51.159Z,8.03
2023-04-06T03:51:20.752Z,7.90
2023-04-06T03:53:48.717Z,9.60
2023-04-06T03:56:15.822Z,8.80
2023-04-06T03:58:42.920Z,7.70
2023-04-06T04:01:09.971Z,8.53
2023-04-06T04:03:37.063Z,11.33
2023-04-06T04:06:04.227Z,12.80
2023-04-06T04:08:31.478Z,19.60
2023-04-06T04:10:58.541Z,22.60
2023-04-06T04:13:25.553Z,17.30
2023-04-06T04:15:53.927Z,17.83
2023-04-06T04:18:20.962Z,26.10
2023-04-06T04:20:48.034Z,25.80
2023-04-06T04:23:15.147Z,13.77
2023-04-06T04:25:42.204Z,8.30
2023-04-06T04:28:09.240Z,8.23
2023-04-06T04:30:37.760Z,8.57
2023-04-06T04:33:09.327Z,8.27
2023-04-06T04:35:36.415Z,8.90
2023-04-06T04:38:04.961Z,8.87
2023-04-06T04:40:33.612Z,8.30
2023-04-06T04:43:08.257Z,6.90
2023-04-06T04:45:35.958Z,7.40
2023-04-06T04:48:32.512Z,7.27
2023-04-06T04:51:03.422Z,6.80
2023-04-06T04:53:42.449Z,7.50
2023-04-06T04:56:19.639Z,7.67
2023-04-06T04:58:51.595Z,7.73
2023-04-06T05:01:18.992Z,7.37
2023-04-06T05:03:47.929Z,7.70
2023-04-06T05:06:16.607Z,7.00
2023-04-06T05:08:44.596Z,6.97
2023-04-06T05:11:11.851Z,6.93
2023-04-06T05:13:44.854Z,7.37
2023-04-06T05:16:22.130Z,6.43
2023-04-06T05:18:51.378Z,6.57
2023-04-06T05:21:20.039Z,7.00
2023-04-06T05:23:58.042Z,7.37
2023-04-06T05:26:25.946Z,6.70
2023-04-06T05:28:57.082Z,6.03
2023-04-06T05:31:25.735Z,6.67
2023-04-06T05:33:53.696Z,6.43
2023-04-06T05:36:33.999Z,6.70
2023-04-06T05:39:06.718Z,6.07
2023-04-06T05:41:42.070Z,7.00
2023-04-06T05:44:10.939Z,6.47
2023-04-06T05:46:39.967Z,5.30
2023-04-06T05:49:11.736Z,6.00
2023-04-06T05:51:40.548Z,6.17
2023-04-06T05:54:08.105Z,5.70
2023-04-06T05:56:36.282Z,5.40
2023-04-06T05:59:04.263Z,5.97
2023-04-06T06:01:32.477Z,5.63
2023-04-06T06:04:03.084Z,5.40
2023-04-06T06:06:33.066Z,5.13
2023-04-06T06:09:18.559Z,4.80
2023-04-06T06:12:13.207Z,5.07
2023-04-06T06:14:41.903Z,5.57
2023-04-06T06:17:09.911Z,5.50
2023-04-06T06:19:37.485Z,4.93
2023-04-06T06:22:07.479Z,4.77
2023-04-06T06:24:38.382Z,5.00
2023-04-06T06:27:05.525Z,4.20
2023-04-06T06:29:35.509Z,4.43
2023-04-06T06:32:02.770Z,4.10
2023-04-06T06:34:30.854Z,3.70
2023-04-06T06:37:00.835Z,4.03
2023-04-06T06:39:27.976Z,3.90
2023-04-06T06:41:57.680Z,4.20
2023-04-06T06:44:44.054Z,4.53
2023-04-06T06:47:11.376Z,3.63
2023-04-06T06:49:38.448Z,3.90
2023-04-06T06:52:05.716Z,3.80
2023-04-06T06:54:32.828Z,3.87
2023-04-06T06:57:01.243Z,3.93
2023-04-06T06:59:28.850Z,3.77
2023-04-06T07:01:56.416Z,3.30
2023-04-06T07:04:23.644Z,3.73
2023-04-06T07:06:51.629Z,4.30
2023-04-06T07:09:18.751Z,3.70
2023-04-06T07:11:45.979Z,3.30
2023-04-06T07:14:13.017Z,3.00
2023-04-06T07:16:40.234Z,3.57
2023-04-06T07:19:07.574Z,2.97
2023-04-06T07:21:35.071Z,3.17
2023-04-06T07:24:02.893Z,3.30
2023-04-06T07:26:29.948Z,3.70
2023-04-06T07:28:58.065Z,3.47
2023-04-06T07:31:26.025Z,3.47
2023-04-06T07:33:53.934Z,3.50
2023-04-06T07:36:21.622Z,3.43
2023-04-06T07:38:49.942Z,3.20
2023-04-06T07:41:17.792Z,3.13
2023-04-06T07:43:45.326Z,3.23
2023-04-06T07:46:13.483Z,3.20
2023-04-06T07:48:40.824Z,3.60
2023-04-06T07:51:08.346Z,3.70
2023-04-06T07:53:39.207Z,3.60
2023-04-06T07:56:06.616Z,3.70
2023-04-06T07:58:33.701Z,3.63
2023-04-06T08:01:00.710Z,3.50
2023-04-06T08:03:27.947Z,3.50
2023-04-06T08:05:56.246Z,4.00
2023-04-06T08:08:23.574Z,4.23
2023-04-06T08:10:50.829Z,4.20
2023-04-06T08:13:18.103Z,3.70
2023-04-06T08:15:45.328Z,3.90
2023-04-06T08:18:12.674Z,3.20
2023-04-06T08:20:40.810Z,3.53
2023-04-06T08:23:10.255Z,3.20
2023-04-06T08:25:37.683Z,3.37
2023-04-06T08:28:05.518Z,3.30
2023-04-06T08:30:32.720Z,3.07
2023-04-06T08:32:59.746Z,3.13
2023-04-06T08:35:28.516Z,3.23
2023-04-06T08:37:55.663Z,2.77
2023-04-06T08:40:22.911Z,3.13
2023-04-06T08:42:57.592Z,3.10
2023-04-06T08:45:25.016Z,3.17
2023-04-06T08:47:53.639Z,3.10
2023-04-06T08:50:21.728Z,3.03
2023-04-06T08:52:50.030Z,2.90
2023-04-06T08:55:17.545Z,3.30
2023-04-06T08:57:46.615Z,3.60
2023-04-06T09:00:15.357Z,4.07
2023-04-06T09:02:46.458Z,3.43
2023-04-06T09:05:14.156Z,3.90
2023-04-06T09:07:41.725Z,3.70
2023-04-06T09:10:09.776Z,3.17
2023-04-06T09:12:37.081Z,3.40
2023-04-06T09:15:04.635Z,3.70
2023-04-06T09:17:34.682Z,3.30
2023-04-06T09:20:03.874Z,3.10
2023-04-06T09:22:39.481Z,3.37
2023-04-06T09:25:07.895Z,3.40
2023-04-06T09:27:39.548Z,3.90
2023-04-06T09:30:15.020Z,3.70
2023-04-06T09:32:50.866Z,3.77
2023-04-06T09:35:18.898Z,3.20
2023-04-06T09:37:46.742Z,3.67
2023-04-06T09:40:14.799Z,3.70
2023-04-06T09:42:49.211Z,3.80
2023-04-06T09:45:16.570Z,3.97
2023-04-06T09:47:47.699Z,4.27
2023-04-06T09:50:17.388Z,3.67
2023-04-06T09:52:52.513Z,4.07
2023-04-06T09:55:29.305Z,14.40
2023-04-06T09:58:07.394Z,4.50
2023-04-06T10:01:01.915Z,3.63
2023-04-06T10:03:56.984Z,3.97
2023-04-06T10:06:28.456Z,3.70
2023-04-06T10:08:58.812Z,8.77
2023-04-06T10:11:26.711Z,35.13
2023-04-06T10:13:56.615Z,14.90
2023-04-06T10:16:24.067Z,7.23
2023-04-06T10:18:58.465Z,7.13
2023-04-06T10:21:28.770Z,16.20
2023-04-06T10:24:02.079Z,37.17
2023-04-06T10:26:29.628Z,26.07
2023-04-06T10:29:02.461Z,6.57
2023-04-06T10:31:29.975Z,3.63
2023-04-06T10:34:03.864Z,4.10
2023-04-06T10:36:35.570Z,4.30
2023-04-06T10:39:07.448Z,4.60
2023-04-06T10:41:37.898Z,34.57
2023-04-06T10:44:05.165Z,8.23
2023-04-06T10:46:34.326Z,5.67
2023-04-06T10:49:14.064Z,4.20
2023-04-06T10:51:41.393Z,8.87
2023-04-06T10:54:08.995Z,6.37
2023-04-06T10:56:39.947Z,6.27
2023-04-06T10:59:08.413Z,4.90
2023-04-06T11:01:35.706Z,7.40
2023-04-06T11:04:03.665Z,5.47
2023-04-06T11:06:34.709Z,4.53
2023-04-06T11:09:01.905Z,4.60
2023-04-06T11:11:29.007Z,5.27
2023-04-06T11:14:01.069Z,4.50
2023-04-06T11:16:34.092Z,4.40
2023-04-06T11:19:04.646Z,3.60
2023-04-06T11:21:44.655Z,4.07
2023-04-06T11:24:20.134Z,4.20
2023-04-06T11:26:59.520Z,4.60
2023-04-06T11:29:32.483Z,4.77
2023-04-06T11:32:05.591Z,4.70
2023-04-06T11:34:39.693Z,4.53
2023-04-06T11:37:12.346Z,4.50
2023-04-06T11:39:45.415Z,4.77
2023-04-06T11:42:12.491Z,4.60
2023-04-06T11:44:46.750Z,4.63
2023-04-06T11:47:14.206Z,4.80
2023-04-06T11:49:45.780Z,4.50
2023-04-06T11:52:26.963Z,4.73
2023-04-06T11:54:55.563Z,4.90
2023-04-06T11:57:26.652Z,5.43
2023-04-06T11:59:54.054Z,5.53
2023-04-06T12:02:21.286Z,5.53
2023-04-06T12:04:48.761Z,4.93
2023-04-06T12:07:15.964Z,5.13
2023-04-06T12:09:44.650Z,6.23
2023-04-06T12:12:11.662Z,5.63
2023-04-06T12:14:38.778Z,5.83
2023-04-06T12:17:05.865Z,5.87
2023-04-06T12:19:33.108Z,5.60
2023-04-06T12:22:00.266Z,5.83
2023-04-06T12:24:28.650Z,5.00
2023-04-06T12:27:08.535Z,5.07
2023-04-06T12:29:37.009Z,5.47
2023-04-06T12:32:04.112Z,5.27
2023-04-06T12:34:31.170Z,5.60
2023-04-06T12:36:58.389Z,4.77
2023-04-06T12:39:26.390Z,4.83
2023-04-06T12:41:54.060Z,4.60
2023-04-06T12:44:21.247Z,5.00
2023-04-06T12:46:48.364Z,4.57
2023-04-06T12:49:17.785Z,4.60
2023-04-06T12:51:45.110Z,4.50
2023-04-06T12:54:12.892Z,4.80
2023-04-06T12:56:40.552Z,5.00
2023-04-06T12:59:08.326Z,4.47
2023-04-06T13:01:35.536Z,4.23
2023-04-06T13:04:02.557Z,4.83
2023-04-06T13:06:30.184Z,4.70
2023-04-06T13:08:57.273Z,4.80
2023-04-06T13:11:27.865Z,4.97
2023-04-06T13:13:55.624Z,4.53
2023-04-06T13:16:23.140Z,4.37
2023-04-06T13:18:51.195Z,4.43
2023-04-06T13:21:18.626Z,4.50
2023-04-06T13:23:45.767Z,4.43
2023-04-06T13:26:14.511Z,4.03
2023-04-06T13:28:42.401Z,4.33
2023-04-06T13:31:10.751Z,4.83
2023-04-06T13:33:38.237Z,4.30
2023-04-06T13:36:07.699Z,4.90
2023-04-06T13:38:35.263Z,4.27
2023-04-06T13:41:02.575Z,4.70
2023-04-06T13:43:29.690Z,4.20
2023-04-06T13:46:00.671Z,4.10
2023-04-06T13:48:27.871Z,4.97
2023-04-06T13:50:54.977Z,4.47
2023-04-06T13:53:21.924Z,3.73
2023-04-06T13:55:56.154Z,4.13
2023-04-06T13:58:23.508Z,4.10
2023-04-06T14:00:50.823Z,4.20
2023-04-06T14:03:18.067Z,4.07
2023-04-06T14:05:46.522Z,4.10
2023-04-06T14:08:13.648Z,4.33
2023-04-06T14:10:41.942Z,4.63
2023-04-06T14:13:09.295Z,4.37
2023-04-06T14:15:36.370Z,4.00
2023-04-06T14:18:03.529Z,4.10
2023-04-06T14:20:33.576Z,3.93
2023-04-06T14:23:04.854Z,4.27
2023-04-06T14:25:35.823Z,4.83
2023-04-06T14:28:03.194Z,4.27
2023-04-06T14:30:31.957Z,4.40
2023-04-06T14:32:59.366Z,4.43
2023-04-06T14:35:29.088Z,4.23
2023-04-06T14:37:59.072Z,5.10
2023-04-06T14:40:26.592Z,4.20
2023-04-06T14:42:53.734Z,4.67
2023-04-06T14:45:22.569Z,4.60
2023-04-06T14:47:49.937Z,4.27
2023-04-06T14:50:17.041Z,4.77
2023-04-06T14:52:44.058Z,4.60
2023-04-06T14:55:11.025Z,4.50
2023-04-06T14:57:38.012Z,4.83
2023-04-06T15:00:06.040Z,4.13
2023-04-06T15:02:34.036Z,4.37
2023-04-06T15:05:01.241Z,4.37
2023-04-06T15:07:28.501Z,4.50
2023-04-06T15:09:55.497Z,4.87
2023-04-06T15:12:22.417Z,4.70
2023-04-06T15:14:49.356Z,4.47
2023-04-06T15:17:16.380Z,5.17
2023-04-06T15:19:43.370Z,5.17
2023-04-06T15:22:12.416Z,5.40
2023-04-06T15:24:39.386Z,5.03
2023-04-06T15:27:06.541Z,4.97
2023-04-06T15:29:33.555Z,5.00
2023-04-06T15:32:00.591Z,5.17
2023-04-06T15:34:31.186Z,5.50
2023-04-06T15:37:05.723Z,5.50
2023-04-06T15:39:33.911Z,5.23
2023-04-06T15:42:01.427Z,4.70
2023-04-06T15:44:28.420Z,5.23
2023-04-06T15:46:55.771Z,4.83
2023-04-06T15:49:22.873Z,4.63
2023-04-06T15:51:51.744Z,4.80
2023-04-06T15:54:21.142Z,4.83
2023-04-06T15:56:49.557Z,5.00
2023-04-06T15:59:16.962Z,4.63
2023-04-06T16:01:44.373Z,4.70
2023-04-06T16:04:12.283Z,6.57
2023-04-06T16:06:39.333Z,6.20
2023-04-06T16:09:06.353Z,4.67
2023-04-06T16:11:33.450Z,4.60
2023-04-06T16:14:00.708Z,4.63
2023-04-06T16:16:27.985Z,4.93
2023-04-06T16:18:55.022Z,5.20
2023-04-06T16:21:22.022Z,5.23
2023-04-06T16:23:48.997Z,6.00
2023-04-06T16:26:21.759Z,5.20
2023-04-06T16:28:49.331Z,5.20
2023-04-06T16:31:24.333Z,5.43
2023-04-06T16:33:54.160Z,5.63
2023-04-06T16:36:30.035Z,5.67
2023-04-06T16:38:58.407Z,5.27
2023-04-06T16:41:26.719Z,5.57
2023-04-06T16:43:57.046Z,6.10
2023-04-06T16:46:32.608Z,13.90
2023-04-06T16:49:01.073Z,58.57
2023-04-06T16:51:28.651Z,19.70
2023-04-06T16:53:56.047Z,10.40
2023-04-06T16:56:23.122Z,8.17
2023-04-06T16:58:50.326Z,9.40
2023-04-06T17:01:28.046Z,19.30
2023-04-06T17:03:56.280Z,19.17
2023-04-06T17:06:23.699Z,9.23
2023-04-06T17:08:51.260Z,8.97
2023-04-06T17:11:23.466Z,11.13
2023-04-06T17:13:55.014Z,6.77
2023-04-06T17:16:22.060Z,9.60
2023-04-06T17:18:49.156Z,13.57
2023-04-06T17:21:17.103Z,7.27
2023-04-06T17:23:44.660Z,8.53
2023-04-06T17:26:11.949Z,6.97
2023-04-06T17:28:39.476Z,6.80
2023-04-06T17:31:11.725Z,12.73
2023-04-06T17:33:41.031Z,7.50
2023-04-06T17:36:12.426Z,8.53
2023-04-06T17:38:43.845Z,8.40
2023-04-06T17:41:12.881Z,8.27
2023-04-06T17:43:40.762Z,11.17
2023-04-06T17:46:07.974Z,7.57
2023-04-06T17:48:35.111Z,8.77
2023-04-06T17:51:02.207Z,14.17
2023-04-06T17:53:32.317Z,11.30
2023-04-06T17:56:03.963Z,8.70
2023-04-06T17:58:31.255Z,12.03
2023-04-06T18:00:58.454Z,8.57
2023-04-06T18:03:25.566Z,9.10
2023-04-06T18:05:52.763Z,7.97
2023-04-06T18:08:19.775Z,6.90
2023-04-06T18:10:48.326Z,7.30
2023-04-06T18:13:15.601Z,6.50
2023-04-06T18:15:42.688Z,6.73
2023-04-06T18:18:09.796Z,8.03
2023-04-06T18:20:41.252Z,7.33
2023-04-06T18:23:08.199Z,7.43
2023-04-06T18:25:41.406Z,7.23
2023-04-06T18:28:09.847Z,6.63
2023-04-06T18:30:37.044Z,7.10
2023-04-06T18:33:04.604Z,6.97
2023-04-06T18:35:31.699Z,7.00
2023-04-06T18:37:58.649Z,7.03
2023-04-06T18:40:34.623Z,7.70
2023-04-06T18:43:05.140Z,7.10
2023-04-06T18:45:38.609Z,7.17
2023-04-06T18:48:06.501Z,6.77
2023-04-06T18:50:33.696Z,7.27
2023-04-06T18:53:00.778Z,6.60
2023-04-06T18:55:28.047Z,7.47
2023-04-06T18:57:55.123Z,7.40
2023-04-06T19:00:22.155Z,7.00
2023-04-06T19:02:49.552Z,7.80
2023-04-06T19:05:17.154Z,7.07
2023-04-06T19:07:47.959Z,7.27
2023-04-06T19:10:15.019Z,7.30
2023-04-06T19:12:41.987Z,7.87
2023-04-06T19:15:09.962Z,7.60
2023-04-06T19:17:38.073Z,7.60
2023-04-06T19:20:06.020Z,7.53
2023-04-06T19:22:36.903Z,7.60
2023-04-06T19:25:06.033Z,7.63
2023-04-06T19:27:33.235Z,6.90
2023-04-06T19:30:01.118Z,7.83
2023-04-06T19:32:30.098Z,7.40
2023-04-06T19:34:59.522Z,7.53
2023-04-06T19:37:26.591Z,7.00
2023-04-06T19:39:53.574Z,7.33
2023-04-06T19:42:21.749Z,7.23
2023-04-06T19:44:49.068Z,7.27
2023-04-06T19:47:16.536Z,7.07
2023-04-06T19:49:43.733Z,7.60
2023-04-06T19:52:11.536Z,6.60
2023-04-06T19:54:40.003Z,6.73
2023-04-06T19:57:07.977Z,6.40
2023-04-06T19:59:34.955Z,15.43
2023-04-06T20:02:02.728Z,6.13
2023-04-06T20:04:29.992Z,5.73
2023-04-06T20:06:57.025Z,5.63
2023-04-06T20:09:24.436Z,5.97
2023-04-06T20:11:53.978Z,5.20
2023-04-06T20:14:22.775Z,5.57
2023-04-06T20:16:50.740Z,5.73
2023-04-06T20:19:18.270Z,5.37
2023-04-06T20:21:45.414Z,4.60
2023-04-06T20:24:12.696Z,4.80
2023-04-06T20:26:39.850Z,5.27
2023-04-06T20:29:06.993Z,5.00
2023-04-06T20:31:34.425Z,4.50
2023-04-06T20:34:02.044Z,4.90
2023-04-06T20:36:32.210Z,5.43
2023-04-06T20:38:59.259Z,4.97
2023-04-06T20:41:26.237Z,5.33
2023-04-06T20:43:53.329Z,4.97
2023-04-06T20:46:20.711Z,5.13
2023-04-06T20:48:47.904Z,5.87
2023-04-06T20:51:20.753Z,5.70
2023-04-06T20:53:48.591Z,6.17
2023-04-06T20:56:15.858Z,5.70
2023-04-06T20:58:42.892Z,5.93
2023-04-06T21:01:15.635Z,6.23
2023-04-06T21:03:43.592Z,5.57
2023-04-06T21:06:11.252Z,6.10
2023-04-06T21:08:38.598Z,7.20
2023-04-06T21:11:06.342Z,6.40
2023-04-06T21:13:34.389Z,6.67
2023-04-06T21:16:01.789Z,6.43
2023-04-06T21:18:31.695Z,6.80
2023-04-06T21:20:59.200Z,7.57
2023-04-06T21:23:26.298Z,7.40
2023-04-06T21:25:56.890Z,7.20
2023-04-06T21:28:27.698Z,6.53
2023-04-06T21:30:55.395Z,7.30
2023-04-06T21:33:23.446Z,7.27
2023-04-06T21:35:50.788Z,8.17
2023-04-06T21:38:17.792Z,8.60
2023-04-06T21:40:44.817Z,8.10
2023-04-06T21:43:11.885Z,8.30
2023-04-06T21:45:39.091Z,8.97
2023-04-06T21:48:07.012Z,9.30
2023-04-06T21:50:34.020Z,8.77
2023-04-06T21:53:01.017Z,9.17
2023-04-06T21:55:28.041Z,8.80
2023-04-06T21:57:55.014Z,8.90
2023-04-06T22:00:22.116Z,9.27
2023-04-06T22:02:49.244Z,9.27
2023-04-06T22:05:16.889Z,9.07
2023-04-06T22:07:47.071Z,8.83
2023-04-06T22:10:14.045Z,10.20
2023-04-06T22:12:41.116Z,10.00
2023-04-06T22:15:12.228Z,9.50
2023-04-06T22:17:39.394Z,10.73
2023-04-06T22:20:08.550Z,10.23
2023-04-06T22:22:35.540Z,9.67
2023-04-06T22:25:02.638Z,10.77
2023-04-06T22:27:29.629Z,9.40
2023-04-06T22:29:56.590Z,9.53
2023-04-06T22:32:23.714Z,9.30
2023-04-06T22:34:50.815Z,9.70
2023-04-06T22:37:17.790Z,9.93
2023-04-06T22:39:45.452Z,10.03
2023-04-06T22:42:12.369Z,9.50
2023-04-06T22:44:39.357Z,8.80
2023-04-06T22:47:06.482Z,9.20
2023-04-06T22:49:33.462Z,9.27
2023-04-06T22:52:00.553Z,9.03
2023-04-06T22:54:27.552Z,9.40
2023-04-06T22:56:54.943Z,12.30
2023-04-06T22:59:21.909Z,9.53
2023-04-06T23:01:48.978Z,9.43
2023-04-06T23:04:16.554Z,8.40
2023-04-06T23:06:44.411Z,8.57
2023-04-06T23:09:11.505Z,8.70
2023-04-06T23:11:38.467Z,8.10
2023-04-06T23:14:08.544Z,8.67
2023-04-06T23:16:35.473Z,8.27
2023-04-06T23:19:02.497Z,8.23
2023-04-06T23:21:30.581Z,12.03
2023-04-06T23:23:59.513Z,12.37
2023-04-06T23:26:27.140Z,8.60
2023-04-06T23:28:54.312Z,8.60
2023-04-06T23:31:21.293Z,21.87
2023-04-06T23:33:48.214Z,12.73
2023-04-06T23:36:15.297Z,9.03
2023-04-06T23:38:42.340Z,7.70
2023-04-06T23:41:09.328Z,9.20
2023-04-06T23:43:36.367Z,8.90
2023-04-06T23:46:03.329Z,13.80
2023-04-06T23:48:30.312Z,9.77
2023-04-06T23:50:57.256Z,9.20
2023-04-06T23:53:24.237Z,10.00
2023-04-06T23:55:51.191Z,9.57
2023-04-06T23:58:18.236Z,9.33
